Time;durP1;ratioP1;P1;durP2;ratioP2;P2;SDS_P1;SDS_P2;PMS_P1;PMS_P2;Temp;Humidity;BMP_temperature;BMP_pressure;BME280_temperature;BME280_humidity;BME280_pressure;Samples;Min_cycle;Max_cycle;Signal;HPM_P1;HPM_P2
2021/08/07 00:00:15;;;;;;;0.00;0.00;;;23.60;71.60;;;;;;5067077;28;20217;-66
2021/08/07 00:02:42;;;;;;;0.00;0.00;;;23.50;71.70;;;;;;5066128;28;20640;-66
2021/08/07 00:05:10;;;;;;;0.50;0.50;;;23.50;71.80;;;;;;5064841;28;20214;-66
2021/08/07 00:07:37;;;;;;;0.00;0.00;;;23.50;72.00;;;;;;5068735;28;20225;-66
2021/08/07 00:10:07;;;;;;;0.00;0.00;;;23.60;72.20;;;;;;5065405;28;20260;-66
2021/08/07 00:12:36;;;;;;;0.00;0.00;;;23.50;72.20;;;;;;5066107;28;20228;-66
2021/08/07 00:15:05;;;;;;;0.10;0.10;;;23.50;72.30;;;;;;5067289;28;20211;-66
2021/08/07 00:17:32;;;;;;;0.00;0.00;;;23.50;72.50;;;;;;5069263;28;20252;-66
2021/08/07 00:19:59;;;;;;;0.40;0.40;;;23.50;72.70;;;;;;5067102;28;20561;-66
2021/08/07 00:22:28;;;;;;;0.00;0.00;;;23.50;72.90;;;;;;5068742;28;20650;-66
2021/08/07 00:24:55;;;;;;;0.07;0.07;;;23.40;72.90;;;;;;5076822;28;20698;-66
2021/08/07 00:27:21;;;;;;;0.00;0.00;;;23.40;73.10;;;;;;5066408;28;20209;-66
2021/08/07 00:29:49;;;;;;;0.00;0.00;;;23.40;73.60;;;;;;5064158;28;20304;-66
2021/08/07 00:32:15;;;;;;;0.10;0.10;;;23.30;73.60;;;;;;5066074;28;20218;-66
2021/08/07 00:34:42;;;;;;;0.10;0.10;;;23.10;73.50;;;;;;5069829;28;20382;-66
2021/08/07 00:37:09;;;;;;;0.10;0.10;;;23.10;73.50;;;;;;5068570;28;20347;-66
2021/08/07 00:39:36;;;;;;;0.00;0.00;;;23.00;73.70;;;;;;5070232;28;20211;-66
2021/08/07 00:42:04;;;;;;;0.00;0.00;;;22.90;73.90;;;;;;5068149;28;20214;-66
2021/08/07 00:44:31;;;;;;;0.00;0.00;;;22.90;74.10;;;;;;5066048;28;20218;-66
2021/08/07 00:46:58;;;;;;;0.00;0.00;;;22.90;74.40;;;;;;5065982;28;20640;-66
2021/08/07 00:49:25;;;;;;;0.10;0.10;;;22.80;74.70;;;;;;5071954;28;20622;-66
2021/08/07 00:51:52;;;;;;;0.00;0.00;;;22.80;74.70;;;;;;5064604;28;20210;-66
2021/08/07 00:54:19;;;;;;;0.10;0.10;;;22.80;75.40;;;;;;5062733;28;20222;-66
2021/08/07 00:56:46;;;;;;;0.20;0.20;;;22.80;74.90;;;;;;5065257;28;20221;-66
2021/08/07 00:59:13;;;;;;;0.00;0.00;;;22.80;75.10;;;;;;5064654;28;20611;-66
2021/08/07 01:01:54;;;;;;;0.00;0.00;;;22.80;75.00;;;;;;5064389;28;20221;-66
2021/08/07 01:04:23;;;;;;;0.00;0.00;;;22.90;75.20;;;;;;5067150;28;20543;-66
2021/08/07 01:07:35;;;;;;;0.00;0.00;;;22.80;75.60;;;;;;5067481;28;20210;-66
2021/08/07 01:10:18;;;;;;;0.20;0.20;;;22.80;76.70;;;;;;5064794;28;20561;-66
2021/08/07 01:13:08;;;;;;;0.20;0.20;;;22.90;77.40;;;;;;5075940;28;20209;-66
2021/08/07 01:15:40;;;;;;;0.10;0.10;;;22.90;77.60;;;;;;5070158;28;20225;-66
2021/08/07 01:18:12;;;;;;;0.83;0.83;;;22.90;77.50;;;;;;5071008;28;20205;-66
2021/08/07 01:20:44;;;;;;;0.40;0.40;;;22.90;77.30;;;;;;5076004;28;20699;-66
2021/08/07 01:23:29;;;;;;;3.70;0.60;;;22.90;77.10;;;;;;5069878;28;20260;-66
2021/08/07 01:25:56;;;;;;;0.00;0.00;;;22.90;76.90;;;;;;5073018;28;20225;-66
2021/08/07 01:28:26;;;;;;;0.10;0.10;;;22.90;76.90;;;;;;5071026;28;20206;-66
2021/08/07 01:30:54;;;;;;;0.10;0.10;;;22.90;76.90;;;;;;5067715;28;20254;-66
2021/08/07 01:33:24;;;;;;;0.00;0.00;;;22.80;76.90;;;;;;5065733;28;20237;-66
2021/08/07 01:35:52;;;;;;;0.27;0.27;;;22.80;77.00;;;;;;5069372;28;20214;-66
2021/08/07 01:38:19;;;;;;;0.00;0.00;;;22.70;77.00;;;;;;5070063;28;20207;-66
2021/08/07 01:40:47;;;;;;;0.33;0.33;;;22.70;77.10;;;;;;5066546;28;20241;-66
2021/08/07 01:43:14;;;;;;;0.07;0.07;;;22.70;77.40;;;;;;5063572;28;20655;-66
2021/08/07 01:45:44;;;;;;;0.10;0.10;;;22.70;77.60;;;;;;5065539;28;20594;-66
2021/08/07 01:48:18;;;;;;;0.00;0.00;;;22.70;77.80;;;;;;5063809;28;20218;-66
2021/08/07 01:51:09;;;;;;;0.00;0.00;;;22.70;78.10;;;;;;5061232;28;20682;-66
2021/08/07 01:53:36;;;;;;;0.10;0.10;;;22.60;78.80;;;;;;5063937;28;20255;-66
2021/08/07 01:56:18;;;;;;;0.00;0.00;;;22.60;78.40;;;;;;5063479;28;20647;-66
2021/08/07 01:58:48;;;;;;;0.10;0.10;;;22.50;78.50;;;;;;5061319;28;20251;-66
2021/08/07 02:01:17;;;;;;;0.47;0.47;;;22.60;78.60;;;;;;5062532;28;20222;-66
2021/08/07 02:03:46;;;;;;;0.07;0.07;;;22.50;78.60;;;;;;5062561;28;20218;-66
2021/08/07 02:06:14;;;;;;;0.00;0.00;;;22.50;78.80;;;;;;5061933;28;20214;-66
2021/08/07 02:08:41;;;;;;;0.00;0.00;;;22.50;78.60;;;;;;5064106;28;20232;-66
2021/08/07 02:11:09;;;;;;;0.20;0.20;;;22.50;78.60;;;;;;5070048;28;20238;-66
2021/08/07 02:13:36;;;;;;;0.10;0.10;;;22.40;78.70;;;;;;5061909;28;20428;-66
2021/08/07 02:16:04;;;;;;;0.00;0.00;;;22.40;78.80;;;;;;5065092;28;20218;-66
2021/08/07 02:18:32;;;;;;;0.10;0.10;;;22.40;78.90;;;;;;5069487;28;20674;-66
2021/08/07 02:21:00;;;;;;;0.00;0.00;;;22.40;79.00;;;;;;5063612;28;20229;-66
2021/08/07 02:23:28;;;;;;;0.10;0.10;;;22.30;78.90;;;;;;5063910;28;20218;-66
2021/08/07 02:25:58;;;;;;;0.00;0.00;;;22.30;78.90;;;;;;5064075;28;20278;-66
2021/08/07 02:28:25;;;;;;;0.00;0.00;;;22.30;79.00;;;;;;5064106;28;20276;-66
2021/08/07 02:30:54;;;;;;;0.10;0.10;;;22.20;79.10;;;;;;5062770;28;20617;-66
2021/08/07 02:33:23;;;;;;;1.50;1.20;;;22.20;79.00;;;;;;5063585;28;20221;-66
2021/08/07 02:35:52;;;;;;;0.00;0.00;;;22.10;79.10;;;;;;5066551;28;20206;-66
2021/08/07 02:38:20;;;;;;;0.10;0.10;;;22.10;79.40;;;;;;5062641;28;20218;-66
2021/08/07 02:40:47;;;;;;;0.00;0.00;;;22.00;79.70;;;;;;5059900;28;20218;-66
2021/08/07 02:43:16;;;;;;;0.10;0.10;;;22.00;79.90;;;;;;5062960;28;20674;-66
2021/08/07 02:45:43;;;;;;;0.00;0.00;;;22.00;80.30;;;;;;5066106;28;20256;-66
2021/08/07 02:48:11;;;;;;;0.00;0.00;;;21.90;80.40;;;;;;5063828;28;20243;-66
2021/08/07 02:50:40;;;;;;;0.00;0.00;;;21.90;80.50;;;;;;5064459;28;20571;-66
2021/08/07 02:53:10;;;;;;;0.00;0.00;;;21.90;80.60;;;;;;5063412;28;20240;-66
2021/08/07 02:55:40;;;;;;;0.40;0.40;;;21.90;80.60;;;;;;5062338;28;20552;-66
2021/08/07 02:58:08;;;;;;;0.10;0.10;;;21.90;80.70;;;;;;5061313;28;20215;-66
2021/08/07 03:00:36;;;;;;;0.00;0.00;;;21.90;80.90;;;;;;5066310;28;20274;-66
2021/08/07 03:03:05;;;;;;;0.10;0.10;;;21.90;81.30;;;;;;5066504;28;20304;-66
2021/08/07 03:05:32;;;;;;;0.13;0.13;;;21.80;81.50;;;;;;5065448;28;20731;-66
2021/08/07 03:08:00;;;;;;;0.10;0.10;;;21.80;81.70;;;;;;5066494;28;20219;-66
2021/08/07 03:10:27;;;;;;;0.00;0.00;;;21.70;81.80;;;;;;5066772;28;20257;-66
2021/08/07 03:12:54;;;;;;;0.30;0.30;;;21.70;82.10;;;;;;5064566;28;20245;-66
2021/08/07 03:15:23;;;;;;;0.40;0.40;;;21.70;81.90;;;;;;5067542;28;20216;-66
2021/08/07 03:17:51;;;;;;;0.10;0.10;;;21.70;81.90;;;;;;5069772;28;20214;-66
2021/08/07 03:20:19;;;;;;;0.00;0.00;;;21.70;82.10;;;;;;5072565;28;20209;-66
2021/08/07 03:22:46;;;;;;;1.37;1.27;;;21.60;82.30;;;;;;5070544;28;20221;-66
2021/08/07 03:25:13;;;;;;;0.10;0.10;;;21.60;82.40;;;;;;5072995;28;20601;-66
2021/08/07 03:27:41;;;;;;;0.10;0.10;;;21.60;82.40;;;;;;5072892;28;20218;-66
2021/08/07 03:30:08;;;;;;;12.10;1.37;;;21.60;82.50;;;;;;5070184;28;20661;-66
2021/08/07 03:32:35;;;;;;;0.10;0.10;;;21.70;82.60;;;;;;5079145;28;20210;-66
2021/08/07 03:35:02;;;;;;;0.00;0.00;;;21.70;82.50;;;;;;5069423;28;20221;-66
2021/08/07 03:37:29;;;;;;;0.07;0.07;;;21.60;82.30;;;;;;5070200;28;20240;-66
2021/08/07 03:39:56;;;;;;;0.00;0.00;;;21.70;82.30;;;;;;5071089;28;20607;-66
2021/08/07 03:42:23;;;;;;;0.00;0.00;;;21.70;82.20;;;;;;5069398;28;20225;-66
2021/08/07 03:44:50;;;;;;;0.00;0.00;;;21.70;82.20;;;;;;5066117;28;20213;-66
2021/08/07 03:47:17;;;;;;;0.10;0.10;;;21.60;81.90;;;;;;5068367;28;20209;-66
2021/08/07 03:49:44;;;;;;;0.20;0.20;;;21.60;81.70;;;;;;5066321;28;20244;-66
2021/08/07 03:52:11;;;;;;;0.10;0.10;;;21.60;81.50;;;;;;5065248;28;20610;-66
2021/08/07 03:54:38;;;;;;;0.00;0.00;;;21.60;81.50;;;;;;5067265;28;20636;-66
2021/08/07 03:57:05;;;;;;;0.73;0.73;;;21.60;81.60;;;;;;5064466;28;20222;-66
2021/08/07 03:59:32;;;;;;;0.00;0.00;;;21.60;81.70;;;;;;5065009;28;20217;-66
2021/08/07 04:01:59;;;;;;;0.00;0.00;;;21.60;81.70;;;;;;5066755;28;20210;-66
2021/08/07 04:04:26;;;;;;;0.07;0.07;;;21.60;81.80;;;;;;5067161;28;20218;-66
2021/08/07 04:06:53;;;;;;;0.00;0.00;;;21.60;81.80;;;;;;5065348;28;20217;-66
2021/08/07 04:09:20;;;;;;;0.00;0.00;;;21.60;81.90;;;;;;5062791;28;20211;-66
2021/08/07 04:11:47;;;;;;;0.00;0.00;;;21.60;81.80;;;;;;5065953;28;20241;-66
2021/08/07 04:14:14;;;;;;;0.00;0.00;;;21.50;81.70;;;;;;5065696;28;20221;-66
2021/08/07 04:16:41;;;;;;;0.17;0.17;;;21.50;81.90;;;;;;5068199;28;20601;-66
2021/08/07 04:19:08;;;;;;;0.10;0.10;;;21.50;82.10;;;;;;5072874;28;20215;-66
2021/08/07 04:21:35;;;;;;;0.00;0.00;;;21.50;82.40;;;;;;5064370;28;20218;-66
2021/08/07 04:24:02;;;;;;;0.10;0.10;;;21.50;82.50;;;;;;5066191;28;20229;-66
2021/08/07 04:26:29;;;;;;;0.33;0.33;;;21.50;82.50;;;;;;5067585;28;20310;-66
2021/08/07 04:28:56;;;;;;;0.10;0.10;;;21.50;82.60;;;;;;5065962;28;20214;-66
2021/08/07 04:31:22;;;;;;;0.00;0.00;;;21.50;82.60;;;;;;5062776;28;20308;-66
2021/08/07 04:33:49;;;;;;;0.57;0.57;;;21.60;82.60;;;;;;5065627;28;20221;-66
2021/08/07 04:36:16;;;;;;;0.30;0.30;;;21.70;82.60;;;;;;5065173;28;20270;-66
2021/08/07 04:38:43;;;;;;;0.00;0.00;;;21.70;82.50;;;;;;5062992;28;20467;-66
2021/08/07 04:41:10;;;;;;;0.00;0.00;;;21.80;82.40;;;;;;5071664;28;20283;-66
2021/08/07 04:43:37;;;;;;;0.20;0.20;;;21.90;82.30;;;;;;5073369;28;20221;-66
2021/08/07 04:46:04;;;;;;;0.00;0.00;;;22.00;82.20;;;;;;5063991;28;20214;-66
2021/08/07 04:48:32;;;;;;;0.00;0.00;;;22.00;82.10;;;;;;5064837;28;20218;-66
2021/08/07 04:50:59;;;;;;;0.00;0.00;;;22.10;82.00;;;;;;5065033;28;20666;-66
2021/08/07 04:53:26;;;;;;;0.00;0.00;;;22.10;81.80;;;;;;5062922;28;20218;-66
2021/08/07 04:55:53;;;;;;;0.00;0.00;;;22.20;81.70;;;;;;5063750;28;20221;-66
2021/08/07 04:58:20;;;;;;;0.10;0.10;;;22.30;81.60;;;;;;5073220;28;20209;-66
2021/08/07 05:00:46;;;;;;;0.00;0.00;;;22.40;81.50;;;;;;5062605;28;20683;-66
2021/08/07 05:03:14;;;;;;;0.10;0.10;;;22.50;81.40;;;;;;5065254;28;20221;-66
2021/08/07 05:05:41;;;;;;;0.00;0.00;;;22.50;81.30;;;;;;5064996;28;20221;-66
2021/08/07 05:08:08;;;;;;;0.03;0.03;;;22.60;81.10;;;;;;5061537;28;20554;-66
2021/08/07 05:10:35;;;;;;;0.10;0.10;;;22.70;81.00;;;;;;5064220;28;20225;-66
2021/08/07 05:13:02;;;;;;;0.00;0.00;;;22.80;80.80;;;;;;5065103;28;20217;-66
2021/08/07 05:15:28;;;;;;;0.00;0.00;;;22.90;80.60;;;;;;5065888;28;20221;-66
2021/08/07 05:17:55;;;;;;;0.20;0.20;;;23.00;80.40;;;;;;5064198;28;20233;-66
2021/08/07 05:20:22;;;;;;;0.10;0.10;;;23.10;80.20;;;;;;5065003;28;20213;-66
2021/08/07 05:22:49;;;;;;;0.10;0.10;;;23.20;80.00;;;;;;5062311;28;20218;-66
2021/08/07 05:25:16;;;;;;;2.13;1.80;;;23.30;79.90;;;;;;5066127;28;20202;-66
2021/08/07 05:27:43;;;;;;;0.10;0.10;;;23.40;80.30;;;;;;5066104;28;20213;-66
2021/08/07 05:30:11;;;;;;;0.10;0.10;;;23.50;79.40;;;;;;5062014;28;20644;-66
2021/08/07 05:32:38;;;;;;;0.00;0.00;;;23.60;79.20;;;;;;5064182;28;20213;-66
2021/08/07 05:35:06;;;;;;;0.00;0.00;;;23.70;78.80;;;;;;5072700;28;20214;-66
2021/08/07 05:37:40;;;;;;;0.00;0.00;;;23.90;78.50;;;;;;5066945;28;20632;-66
2021/08/07 05:40:09;;;;;;;0.00;0.00;;;24.10;78.10;;;;;;5062521;28;20214;-66
2021/08/07 05:42:36;;;;;;;0.00;0.00;;;24.50;77.20;;;;;;5062517;28;20214;-66
2021/08/07 05:45:03;;;;;;;0.10;0.10;;;24.80;75.90;;;;;;5063770;28;20661;-66
2021/08/07 05:47:31;;;;;;;0.00;0.00;;;25.20;74.90;;;;;;5065326;28;20237;-66
2021/08/07 05:49:58;;;;;;;0.10;0.10;;;25.40;74.00;;;;;;5062866;28;20206;-66
2021/08/07 05:52:27;;;;;;;0.50;0.50;;;25.50;73.60;;;;;;5063433;28;20245;-67
2021/08/07 05:54:54;;;;;;;0.10;0.10;;;25.60;73.30;;;;;;5064178;28;20716;-67
2021/08/07 05:57:21;;;;;;;0.53;0.53;;;25.70;73.20;;;;;;5070509;28;20640;-67
2021/08/07 05:59:48;;;;;;;0.00;0.00;;;25.80;73.00;;;;;;5061104;28;20218;-67
2021/08/07 06:02:15;;;;;;;0.00;0.00;;;25.80;72.60;;;;;;5064774;28;20555;-67
2021/08/07 06:04:42;;;;;;;0.00;0.00;;;26.00;72.40;;;;;;5070263;28;20300;-67
2021/08/07 06:07:09;;;;;;;0.07;0.07;;;26.10;72.10;;;;;;5061874;28;20276;-67
2021/08/07 06:09:36;;;;;;;0.00;0.00;;;26.20;71.60;;;;;;5071041;28;20222;-67
2021/08/07 06:12:03;;;;;;;0.20;0.20;;;26.30;71.10;;;;;;5070256;28;20249;-67
2021/08/07 06:14:31;;;;;;;0.10;0.10;;;26.40;70.60;;;;;;5060632;28;20403;-67
2021/08/07 06:16:58;;;;;;;0.00;0.00;;;26.50;70.30;;;;;;5065133;28;20663;-67
2021/08/07 06:19:25;;;;;;;0.00;0.00;;;26.60;70.30;;;;;;5062579;28;20579;-67
2021/08/07 06:21:52;;;;;;;0.10;0.10;;;26.70;69.70;;;;;;5063646;28;20723;-67
2021/08/07 06:24:18;;;;;;;1.30;1.17;;;26.80;69.40;;;;;;5061131;28;20211;-67
2021/08/07 06:26:45;;;;;;;0.50;0.50;;;26.90;68.90;;;;;;5068277;28;20217;-67
2021/08/07 06:29:12;;;;;;;0.00;0.00;;;27.10;68.40;;;;;;5062104;28;20543;-67
2021/08/07 06:31:39;;;;;;;0.00;0.00;;;27.20;68.20;;;;;;5065303;28;20242;-67
2021/08/07 06:34:06;;;;;;;0.30;0.30;;;27.40;67.80;;;;;;5062714;28;20209;-67
2021/08/07 06:36:33;;;;;;;0.00;0.00;;;27.60;67.50;;;;;;5063704;28;20213;-67
2021/08/07 06:39:00;;;;;;;0.10;0.10;;;27.70;66.90;;;;;;5060182;28;20690;-67
2021/08/07 06:41:27;;;;;;;0.70;0.70;;;27.80;66.50;;;;;;5062472;28;20271;-67
2021/08/07 06:43:54;;;;;;;0.07;0.07;;;27.90;66.00;;;;;;5071116;28;20213;-67
2021/08/07 06:46:21;;;;;;;0.10;0.10;;;28.10;65.70;;;;;;5061557;28;20218;-67
2021/08/07 06:48:48;;;;;;;0.10;0.10;;;28.20;65.20;;;;;;5062870;28;20684;-67
2021/08/07 06:51:15;;;;;;;0.10;0.10;;;28.40;64.70;;;;;;5063477;28;20611;-67
2021/08/07 06:53:42;;;;;;;0.00;0.00;;;28.60;64.30;;;;;;5060820;28;20218;-67
2021/08/07 06:56:09;;;;;;;0.00;0.00;;;28.80;63.80;;;;;;5061956;28;20685;-67
2021/08/07 06:58:36;;;;;;;0.00;0.00;;;28.90;63.20;;;;;;5071684;28;20574;-67
2021/08/07 07:01:03;;;;;;;0.10;0.10;;;29.10;62.50;;;;;;5061690;28;20227;-67
2021/08/07 07:03:30;;;;;;;0.00;0.00;;;29.20;61.80;;;;;;5063106;28;20222;-67
2021/08/07 07:05:57;;;;;;;0.00;0.00;;;29.30;60.90;;;;;;5064816;28;20228;-67
2021/08/07 07:08:24;;;;;;;0.00;0.00;;;29.30;60.90;;;;;;5061150;28;20233;-67
2021/08/07 07:10:51;;;;;;;0.10;0.10;;;29.40;60.40;;;;;;5062141;28;20224;-67
2021/08/07 07:13:18;;;;;;;0.60;0.60;;;29.60;60.40;;;;;;5064361;28;20271;-67
2021/08/07 07:15:45;;;;;;;0.10;0.10;;;29.80;60.10;;;;;;5063910;28;20214;-67
2021/08/07 07:18:12;;;;;;;0.67;0.67;;;29.90;59.60;;;;;;5067050;28;20279;-67
2021/08/07 07:20:39;;;;;;;0.03;0.03;;;30.00;59.10;;;;;;5061030;28;20218;-67
2021/08/07 07:23:12;;;;;;;1.83;0.40;;;30.00;59.00;;;;;;5062625;28;20210;-66
2021/08/07 07:25:39;;;;;;;0.20;0.20;;;30.10;58.60;;;;;;5067232;28;20555;-66
2021/08/07 07:28:06;;;;;;;0.20;0.20;;;30.10;57.50;;;;;;5061487;28;20202;-67
2021/08/07 07:30:33;;;;;;;0.00;0.00;;;30.30;57.60;;;;;;5061865;28;20246;-67
2021/08/07 07:33:00;;;;;;;0.17;0.17;;;30.30;56.90;;;;;;5060773;28;20234;-67
2021/08/07 07:35:27;;;;;;;0.00;0.00;;;30.30;56.60;;;;;;5063712;28;20226;-67
2021/08/07 07:37:54;;;;;;;0.00;0.00;;;30.30;56.80;;;;;;5061251;28;20213;-67
2021/08/07 07:40:22;;;;;;;0.00;0.00;;;30.40;56.50;;;;;;5063779;28;20221;-67
2021/08/07 07:42:48;;;;;;;0.00;0.00;;;30.50;56.20;;;;;;5060969;28;20556;-67
2021/08/07 07:45:15;;;;;;;1.07;1.07;;;30.60;55.80;;;;;;5061821;28;20639;-67
2021/08/07 07:47:42;;;;;;;0.10;0.10;;;30.60;55.70;;;;;;5063724;28;20222;-67
2021/08/07 07:50:10;;;;;;;0.03;0.03;;;30.70;55.30;;;;;;5060717;28;20229;-67
2021/08/07 07:52:37;;;;;;;0.00;0.00;;;30.80;55.20;;;;;;5061371;28;20320;-67
2021/08/07 07:55:05;;;;;;;0.07;0.07;;;30.90;55.30;;;;;;5070587;28;20304;-67
2021/08/07 07:57:32;;;;;;;0.00;0.00;;;31.00;53.30;;;;;;5060898;28;20704;-67
2021/08/07 07:59:58;;;;;;;0.27;0.27;;;31.10;53.10;;;;;;5064476;28;20396;-67
2021/08/07 08:02:25;;;;;;;0.20;0.20;;;31.20;53.60;;;;;;5063568;28;20221;-67
2021/08/07 08:04:52;;;;;;;0.00;0.00;;;31.30;52.80;;;;;;5064290;28;20264;-67
2021/08/07 08:07:19;;;;;;;0.00;0.00;;;31.30;52.50;;;;;;5064224;28;20514;-67
2021/08/07 08:09:46;;;;;;;0.23;0.23;;;31.40;52.60;;;;;;5066535;28;20290;-67
2021/08/07 08:12:14;;;;;;;0.00;0.00;;;31.50;51.80;;;;;;5064486;28;20249;-67
2021/08/07 08:14:40;;;;;;;0.00;0.00;;;31.50;52.00;;;;;;5064466;28;20236;-67
2021/08/07 08:17:08;;;;;;;0.00;0.00;;;31.60;51.50;;;;;;5066157;28;20774;-67
2021/08/07 08:19:36;;;;;;;0.00;0.00;;;31.60;51.30;;;;;;5064699;28;20694;-67
2021/08/07 08:22:04;;;;;;;0.50;0.50;;;31.50;51.40;;;;;;5062790;28;20490;-67
2021/08/07 08:24:31;;;;;;;0.17;0.17;;;31.40;51.90;;;;;;5067779;28;20218;-67
2021/08/07 08:26:58;;;;;;;1.90;1.30;;;31.60;51.50;;;;;;5067188;28;20253;-67
2021/08/07 08:29:25;;;;;;;0.10;0.10;;;31.60;50.60;;;;;;5066068;28;20323;-67
2021/08/07 08:31:52;;;;;;;0.00;0.00;;;31.60;51.10;;;;;;5067238;28;20231;-67
2021/08/07 08:34:19;;;;;;;0.10;0.10;;;31.80;51.30;;;;;;5063894;28;20240;-67
2021/08/07 08:36:46;;;;;;;0.00;0.00;;;31.90;50.90;;;;;;5066151;28;20274;-67
2021/08/07 08:39:13;;;;;;;0.00;0.00;;;31.80;50.80;;;;;;5065638;28;20259;-67
2021/08/07 08:41:40;;;;;;;0.20;0.17;;;31.90;50.60;;;;;;5064068;28;20210;-67
2021/08/07 08:44:07;;;;;;;0.00;0.00;;;32.00;49.20;;;;;;5062792;28;20222;-67
2021/08/07 08:46:36;;;;;;;0.00;0.00;;;31.90;49.20;;;;;;5054489;28;20222;-67
2021/08/07 08:49:05;;;;;;;0.10;0.10;;;31.90;49.90;;;;;;5063938;28;20548;-67
2021/08/07 08:51:32;;;;;;;0.13;0.13;;;32.00;49.40;;;;;;5065398;28;20237;-67
2021/08/07 08:54:01;;;;;;;0.00;0.00;;;32.20;49.50;;;;;;5071752;28;20214;-66
2021/08/07 08:56:34;;;;;;;0.00;0.00;;;32.30;49.30;;;;;;5062990;28;20214;-66
2021/08/07 08:59:03;;;;;;;0.10;0.10;;;32.50;49.50;;;;;;5065498;28;20214;-66
2021/08/07 09:01:30;;;;;;;0.27;0.27;;;32.70;49.10;;;;;;5064810;28;20687;-66
2021/08/07 09:03:58;;;;;;;0.00;0.00;;;32.90;48.80;;;;;;5064540;28;20617;-66
2021/08/07 09:06:25;;;;;;;0.10;0.10;;;33.20;48.40;;;;;;5063647;28;20222;-66
2021/08/07 09:09:09;;;;;;;0.00;0.00;;;33.40;48.30;;;;;;5062436;28;20214;-66
2021/08/07 09:11:51;;;;;;;0.17;0.17;;;33.70;47.90;;;;;;5064893;28;20241;-66
2021/08/07 09:14:27;;;;;;;0.00;0.00;;;33.80;46.70;;;;;;5063805;28;20209;-66
2021/08/07 09:16:58;;;;;;;0.00;0.00;;;33.90;46.70;;;;;;5069970;28;20214;-66
2021/08/07 09:19:26;;;;;;;0.00;0.00;;;34.10;46.80;;;;;;5064368;28;20740;-66
2021/08/07 09:22:12;;;;;;;0.00;0.00;;;34.40;46.30;;;;;;5065145;28;20265;-66
2021/08/07 09:25:07;;;;;;;0.00;0.00;;;34.60;44.90;;;;;;5052764;28;20232;-66
2021/08/07 09:27:47;;;;;;;0.00;0.00;;;34.70;44.70;;;;;;5056764;28;20205;-66
2021/08/07 09:30:18;;;;;;;0.73;0.70;;;34.80;44.20;;;;;;5061197;28;20246;-66
2021/08/07 09:32:47;;;;;;;0.00;0.00;;;34.80;44.00;;;;;;5061444;28;20238;-66
2021/08/07 09:35:17;;;;;;;0.00;0.00;;;35.00;43.50;;;;;;5060565;28;20236;-66
2021/08/07 09:37:44;;;;;;;0.10;0.10;;;35.00;42.00;;;;;;5061628;28;20258;-66
2021/08/07 09:40:13;;;;;;;0.40;0.40;;;35.10;42.70;;;;;;5063579;28;20213;-66
2021/08/07 09:42:51;;;;;;;0.00;0.00;;;35.20;42.30;;;;;;5062321;28;20717;-66
2021/08/07 09:45:25;;;;;;;0.00;0.00;;;35.20;41.90;;;;;;5061282;28;20214;-66
2021/08/07 09:47:58;;;;;;;11.23;3.07;;;35.20;41.80;;;;;;5061247;28;20306;-66
2021/08/07 09:50:27;;;;;;;0.00;0.00;;;35.20;41.60;;;;;;5061487;28;20214;-66
2021/08/07 09:52:55;;;;;;;0.00;0.00;;;35.00;40.50;;;;;;5060878;28;20242;-66
2021/08/07 09:55:23;;;;;;;2.93;1.50;;;34.90;41.50;;;;;;5063692;28;20206;-66
2021/08/07 09:58:12;;;;;;;0.00;0.00;;;34.90;41.90;;;;;;5063508;28;20286;-66
2021/08/07 10:00:43;;;;;;;0.00;0.00;;;35.10;42.00;;;;;;5062674;28;20210;-67
2021/08/07 10:03:15;;;;;;;0.00;0.00;;;35.30;42.00;;;;;;5064359;28;20226;-67
2021/08/07 10:05:43;;;;;;;0.00;0.00;;;35.30;42.20;;;;;;5061156;28;20214;-67
2021/08/07 10:08:11;;;;;;;0.00;0.00;;;35.50;42.10;;;;;;5070464;28;20213;-67
2021/08/07 10:10:40;;;;;;;0.00;0.00;;;35.50;41.90;;;;;;5061695;28;20222;-67
2021/08/07 10:13:08;;;;;;;0.00;0.00;;;35.40;41.90;;;;;;5060189;28;20311;-67
2021/08/07 10:15:40;;;;;;;0.30;0.30;;;35.50;41.60;;;;;;5059954;28;20776;-67
2021/08/07 10:18:08;;;;;;;0.20;0.20;;;35.50;41.30;;;;;;5067241;28;20226;-67
2021/08/07 10:20:38;;;;;;;0.00;0.00;;;35.50;41.60;;;;;;5063191;28;20217;-67
2021/08/07 10:23:06;;;;;;;0.00;0.00;;;35.70;40.70;;;;;;5069615;28;20210;-67
2021/08/07 10:25:34;;;;;;;0.00;0.00;;;35.60;38.80;;;;;;5063116;28;20255;-67
2021/08/07 10:28:03;;;;;;;0.07;0.07;;;35.10;39.80;;;;;;5062932;28;20880;-67
2021/08/07 10:30:33;;;;;;;0.00;0.00;;;34.90;40.80;;;;;;5068000;28;20233;-67
2021/08/07 10:33:02;;;;;;;0.00;0.00;;;34.90;41.00;;;;;;5060234;28;20234;-67
2021/08/07 10:35:30;;;;;;;0.00;0.00;;;34.90;40.30;;;;;;5063737;28;20207;-67
2021/08/07 10:37:59;;;;;;;0.10;0.10;;;34.80;40.80;;;;;;5067800;28;20370;-67
2021/08/07 10:40:27;;;;;;;0.07;0.07;;;34.80;40.80;;;;;;5061826;28;20238;-67
2021/08/07 10:42:55;;;;;;;0.10;0.10;;;34.80;40.80;;;;;;5061496;28;20214;-67
2021/08/07 10:45:23;;;;;;;0.10;0.10;;;35.00;40.20;;;;;;5063634;28;20538;-67
2021/08/07 10:47:51;;;;;;;0.10;0.10;;;35.10;40.80;;;;;;5063328;28;20213;-67
2021/08/07 10:50:34;;;;;;;0.00;0.00;;;35.20;40.60;;;;;;5062848;28;20243;-67
2021/08/07 10:53:06;;;;;;;0.00;0.00;;;35.40;40.40;;;;;;5062540;28;20230;-67
2021/08/07 10:55:55;;;;;;;0.30;0.30;;;35.50;40.10;;;;;;5061300;28;20222;-67
2021/08/07 10:58:37;;;;;;;1.03;0.60;;;35.60;39.20;;;;;;5062854;28;20222;-67
2021/08/07 11:01:23;;;;;;;0.10;0.10;;;35.60;39.70;;;;;;5061089;28;20222;-67
2021/08/07 11:04:02;;;;;;;0.00;0.00;;;35.70;39.70;;;;;;5063322;28;20655;-67
2021/08/07 11:06:38;;;;;;;0.00;0.00;;;35.80;39.20;;;;;;5068564;28;20681;-67
2021/08/07 11:09:14;;;;;;;0.20;0.20;;;35.80;39.10;;;;;;5060890;28;20252;-67
2021/08/07 11:11:42;;;;;;;0.77;0.77;;;35.60;39.30;;;;;;5061802;28;20221;-67
2021/08/07 11:14:28;;;;;;;4.27;2.27;;;35.70;39.20;;;;;;5060590;28;20225;-67
2021/08/07 11:17:04;;;;;;;0.10;0.10;;;35.70;38.70;;;;;;5063713;28;20209;-67
2021/08/07 11:19:49;;;;;;;0.00;0.00;;;35.70;39.00;;;;;;5061885;28;20220;-67
2021/08/07 11:22:41;;;;;;;0.00;0.00;;;35.80;38.70;;;;;;5061846;28;20218;-67
2021/08/07 11:25:17;;;;;;;0.07;0.07;;;35.80;38.30;;;;;;5062885;28;20568;-67
2021/08/07 11:30:21;;;;;;;0.00;0.00;;;35.90;38.70;;;;;;5059922;28;20257;-67
2021/08/07 11:32:57;;;;;;;0.30;0.30;;;36.00;38.20;;;;;;5068531;28;20678;-67
2021/08/07 11:35:30;;;;;;;0.10;0.10;;;36.00;38.60;;;;;;5063019;28;20606;-66
2021/08/07 11:38:13;;;;;;;0.10;0.10;;;36.00;38.40;;;;;;5068143;28;20769;-66
2021/08/07 11:40:46;;;;;;;0.10;0.10;;;36.00;38.40;;;;;;5065998;28;20685;-66
2021/08/07 11:43:19;;;;;;;0.10;0.10;;;36.20;38.50;;;;;;5064807;28;20710;-66
2021/08/07 11:45:47;;;;;;;0.10;0.10;;;36.20;38.10;;;;;;5071150;28;20214;-66
2021/08/07 11:48:23;;;;;;;0.10;0.10;;;36.30;37.40;;;;;;5066927;28;20247;-66
2021/08/07 11:50:50;;;;;;;0.00;0.00;;;36.40;37.50;;;;;;5066601;28;20602;-66
2021/08/07 11:53:19;;;;;;;0.13;0.13;;;36.20;36.90;;;;;;5066657;28;20611;-66
2021/08/07 11:55:58;;;;;;;0.00;0.00;;;36.20;37.30;;;;;;5064756;28;20214;-66
2021/08/07 11:58:25;;;;;;;0.10;0.10;;;36.20;37.60;;;;;;5065510;28;20235;-66
2021/08/07 12:01:03;;;;;;;0.00;0.00;;;36.00;37.80;;;;;;5063584;28;20222;-66
2021/08/07 12:03:45;;;;;;;0.00;0.00;;;36.00;37.50;;;;;;5063048;28;20210;-66
2021/08/07 12:06:16;;;;;;;0.43;0.43;;;36.00;37.80;;;;;;5063516;28;20222;-66
2021/08/07 12:08:44;;;;;;;0.10;0.10;;;35.90;37.50;;;;;;5062197;28;20292;-66
2021/08/07 12:11:13;;;;;;;0.00;0.00;;;36.00;37.90;;;;;;5065878;28;20432;-67
2021/08/07 12:13:51;;;;;;;0.00;0.00;;;36.10;37.90;;;;;;5064073;28;20249;-67
2021/08/07 12:16:31;;;;;;;0.10;0.10;;;36.40;37.80;;;;;;5063140;28;20217;-67
2021/08/07 12:19:04;;;;;;;0.10;0.10;;;36.60;37.60;;;;;;5062492;28;20214;-67
2021/08/07 12:21:38;;;;;;;0.00;0.00;;;36.80;36.50;;;;;;5063367;28;20217;-67
2021/08/07 12:24:10;;;;;;;0.10;0.10;;;36.80;36.10;;;;;;5063128;28;20717;-67
2021/08/07 12:26:42;;;;;;;0.00;0.00;;;36.70;36.70;;;;;;5062892;28;20509;-67
2021/08/07 12:29:15;;;;;;;0.10;0.10;;;36.50;36.30;;;;;;5065853;28;20206;-67
2021/08/07 12:31:54;;;;;;;0.00;0.00;;;36.20;35.50;;;;;;5068432;28;20210;-67
2021/08/07 12:34:22;;;;;;;0.07;0.07;;;36.10;36.80;;;;;;5063110;28;20241;-67
2021/08/07 12:36:58;;;;;;;0.00;0.00;;;36.00;37.00;;;;;;5066300;28;20206;-67
2021/08/07 12:39:27;;;;;;;0.00;0.00;;;35.90;36.60;;;;;;5065215;28;20577;-67
2021/08/07 12:41:57;;;;;;;0.10;0.10;;;35.80;37.90;;;;;;5064844;28;20221;-67
2021/08/07 12:44:27;;;;;;;0.10;0.10;;;35.90;38.00;;;;;;5071140;28;20233;-67
2021/08/07 12:46:56;;;;;;;0.00;0.00;;;36.00;37.40;;;;;;5063890;28;20206;-67
2021/08/07 12:49:45;;;;;;;0.07;0.07;;;36.00;37.30;;;;;;5062734;28;20252;-66
2021/08/07 12:52:15;;;;;;;0.00;0.00;;;35.90;37.60;;;;;;5067067;28;20571;-66
2021/08/07 12:55:01;;;;;;;0.00;0.00;;;35.70;37.90;;;;;;5069333;28;20211;-66
2021/08/07 12:57:29;;;;;;;0.03;0.03;;;35.70;38.60;;;;;;5064906;28;20213;-66
2021/08/07 12:59:56;;;;;;;0.00;0.00;;;35.70;37.50;;;;;;5071299;28;20272;-66
2021/08/07 13:02:27;;;;;;;0.20;0.20;;;35.60;38.00;;;;;;5065542;28;20208;-66